createdAt,value
2018-04-28T00:00:04.019Z,36.40
2018-04-28T00:02:32.543Z,46.57
2018-04-28T00:05:01.012Z,41.70
2018-04-28T00:07:29.717Z,36.47
2018-04-28T00:09:58.085Z,38.77
2018-04-28T00:12:26.699Z,34.37
2018-04-28T00:14:55.066Z,38.43
2018-04-28T00:17:23.430Z,35.33
2018-04-28T00:19:57.376Z,33.77
2018-04-28T00:22:27.681Z,31.77
2018-04-28T00:24:56.800Z,38.40
2018-04-28T00:27:29.863Z,31.83
2018-04-28T00:29:58.219Z,30.60
2018-04-28T00:32:26.588Z,35.43
2018-04-28T00:34:58.962Z,34.03
2018-04-28T00:37:27.775Z,37.00
2018-04-28T00:40:02.097Z,33.63
2018-04-28T00:42:46.328Z,36.47
2018-04-28T00:45:18.604Z,30.43
2018-04-28T00:47:51.994Z,29.43
2018-04-28T00:50:31.075Z,31.40
2018-04-28T00:52:59.593Z,31.43
2018-04-28T00:55:31.476Z,32.30
2018-04-28T00:58:05.924Z,31.97
2018-04-28T01:00:35.384Z,30.80
2018-04-28T01:03:05.757Z,32.97
2018-04-28T01:05:40.030Z,30.97
2018-04-28T01:08:08.719Z,31.33
2018-04-28T01:10:37.145Z,30.00
2018-04-28T01:13:15.627Z,26.77
2018-04-28T01:15:44.099Z,33.73
2018-04-28T01:18:29.163Z,33.10
2018-04-28T01:21:02.879Z,31.70
2018-04-28T01:23:48.948Z,27.77
2018-04-28T01:26:23.134Z,35.53
2018-04-28T01:29:08.120Z,34.63
2018-04-28T01:31:38.536Z,28.93
2018-04-28T01:34:17.715Z,29.43
2018-04-28T01:36:52.951Z,28.80
2018-04-28T01:39:32.552Z,27.80
2018-04-28T01:45:08.164Z,30.97
2018-04-28T01:47:39.267Z,25.20
2018-04-28T01:50:08.787Z,26.23
2018-04-28T01:52:38.788Z,25.67
2018-04-28T01:55:10.240Z,22.70
2018-04-28T01:57:41.735Z,21.47
2018-04-28T02:03:10.627Z,25.23
2018-04-28T02:05:51.416Z,25.20
2018-04-28T02:08:20.035Z,20.53
2018-04-28T02:10:52.926Z,17.33
2018-04-28T02:16:23.523Z,24.77
2018-04-28T02:19:02.970Z,21.77
2018-04-28T02:21:34.875Z,19.30
2018-04-28T02:24:26.852Z,19.67
2018-04-28T02:26:56.731Z,15.67
2018-04-28T02:32:21.798Z,16.20
2018-04-28T02:34:55.736Z,20.97
2018-04-28T02:37:31.007Z,18.47
2018-04-28T02:40:11.719Z,20.83
2018-04-28T02:42:41.603Z,17.97
2018-04-28T02:48:27.408Z,18.70
2018-04-28T02:53:53.483Z,15.13
2018-04-28T02:56:26.880Z,13.63
2018-04-28T02:59:12.164Z,18.53
2018-04-28T03:01:51.228Z,14.77
2018-04-28T03:04:31.433Z,15.83
2018-04-28T03:07:08.781Z,19.63
2018-04-28T03:09:44.048Z,14.43
2018-04-28T03:12:22.401Z,16.17
2018-04-28T03:14:51.434Z,15.83
2018-04-28T03:17:27.224Z,15.63
2018-04-28T03:19:56.512Z,18.77
2018-04-28T03:22:25.826Z,14.30
2018-04-28T03:25:10.971Z,17.00
2018-04-28T03:30:42.730Z,16.63
2018-04-28T03:33:29.319Z,17.60
2018-04-28T03:39:02.159Z,15.43
2018-04-28T03:41:32.592Z,15.53
2018-04-28T03:44:10.677Z,14.20
2018-04-28T03:46:45.931Z,18.60
2018-04-28T03:49:21.307Z,16.00
2018-04-28T03:52:01.846Z,18.57
2018-04-28T03:54:35.241Z,14.63
2018-04-28T03:57:33.660Z,12.80
2018-04-28T04:00:14.210Z,14.17
2018-04-28T04:02:55.321Z,16.93
2018-04-28T04:05:35.655Z,18.30
2018-04-28T04:08:17.451Z,20.30
2018-04-28T04:10:55.668Z,16.20
2018-04-28T04:13:35.779Z,14.47
2018-04-28T04:19:23.901Z,19.53
2018-04-28T04:22:16.096Z,26.63
2018-04-28T04:28:02.176Z,24.20
2018-04-28T04:30:31.607Z,15.97
2018-04-28T04:33:10.977Z,17.80
2018-04-28T04:35:48.328Z,16.43
2018-04-28T04:38:25.324Z,16.47
2018-04-28T04:41:15.151Z,15.87
2018-04-28T04:44:01.558Z,18.83
2018-04-28T04:46:39.405Z,16.17
2018-04-28T04:49:11.205Z,17.30
2018-04-28T04:54:38.729Z,16.90
2018-04-28T04:57:19.253Z,16.73
2018-04-28T05:00:22.900Z,21.67
2018-04-28T05:03:12.675Z,29.27
2018-04-28T05:06:05.540Z,18.07
2018-04-28T05:08:40.927Z,18.97
2018-04-28T05:14:34.465Z,15.93
2018-04-28T05:17:18.051Z,21.53
2018-04-28T05:19:59.034Z,18.87
2018-04-28T05:22:51.176Z,15.23
2018-04-28T05:25:31.858Z,16.80
2018-04-28T05:28:06.008Z,16.37
2018-04-28T05:30:57.627Z,60.67
2018-04-28T05:33:33.862Z,19.47
2018-04-28T05:39:24.473Z,17.93
2018-04-28T05:42:06.016Z,19.03
2018-04-28T05:44:36.936Z,12.47
2018-04-28T05:47:17.738Z,18.40
2018-04-28T05:52:53.849Z,16.73
2018-04-28T05:58:41.068Z,17.27
2018-04-28T06:01:09.789Z,18.30
2018-04-28T06:03:45.480Z,15.90
2018-04-28T06:06:26.375Z,15.83
2018-04-28T06:09:15.051Z,18.10
2018-04-28T06:15:03.171Z,15.03
2018-04-28T06:17:53.144Z,16.77
2018-04-28T06:23:23.099Z,13.83
2018-04-28T06:25:52.053Z,12.90
2018-04-28T06:28:20.723Z,11.43
2018-04-28T06:30:49.176Z,27.40
2018-04-28T06:33:17.842Z,15.03
2018-04-28T06:35:46.444Z,16.60
2018-04-28T06:38:14.894Z,13.03
2018-04-28T06:40:43.270Z,13.60
2018-04-28T06:43:12.224Z,15.83
2018-04-28T06:45:40.651Z,10.53
2018-04-28T06:48:09.526Z,31.37
2018-04-28T06:50:38.741Z,11.80
2018-04-28T06:53:07.197Z,16.17
2018-04-28T06:55:35.710Z,12.83
2018-04-28T06:58:04.173Z,26.83
2018-04-28T07:00:32.544Z,13.73
2018-04-28T07:03:01.268Z,13.33
2018-04-28T07:05:29.641Z,15.83
2018-04-28T07:07:58.007Z,14.47
2018-04-28T07:10:26.711Z,16.20
2018-04-28T07:12:55.790Z,12.23
2018-04-28T07:15:24.979Z,9.20
2018-04-28T07:17:53.561Z,11.93
2018-04-28T07:20:22.732Z,11.90
2018-04-28T07:22:51.093Z,10.17
2018-04-28T07:25:19.488Z,10.63
2018-04-28T07:27:47.886Z,15.37
2018-04-28T07:30:16.242Z,12.07
2018-04-28T07:32:44.885Z,12.47
2018-04-28T07:35:13.328Z,13.23
2018-04-28T07:37:41.951Z,13.53
2018-04-28T07:40:10.354Z,16.03
2018-04-28T07:42:39.089Z,15.83
2018-04-28T07:45:07.724Z,11.83
2018-04-28T07:47:36.475Z,12.13
2018-04-28T07:50:05.173Z,16.50
2018-04-28T07:52:33.869Z,12.97
2018-04-28T07:55:02.642Z,12.10
2018-04-28T07:57:31.456Z,12.80
2018-04-28T07:59:59.815Z,11.70
2018-04-28T08:02:28.990Z,15.27
2018-04-28T08:04:57.718Z,13.43
2018-04-28T08:07:26.144Z,12.10
2018-04-28T08:09:54.542Z,16.13
2018-04-28T08:12:22.899Z,14.43
2018-04-28T08:14:51.343Z,20.87
2018-04-28T08:17:19.866Z,70.60
2018-04-28T08:19:48.686Z,80.90
2018-04-28T08:22:17.376Z,18.87
2018-04-28T08:24:45.750Z,17.13
2018-04-28T08:27:14.398Z,15.57
2018-04-28T08:29:42.832Z,22.27
2018-04-28T08:32:11.574Z,17.73
2018-04-28T08:34:40.681Z,18.40
2018-04-28T08:37:09.138Z,16.07
2018-04-28T08:39:37.522Z,16.37
2018-04-28T08:42:05.956Z,21.27
2018-04-28T08:44:34.602Z,20.57
2018-04-28T08:47:03.021Z,22.03
2018-04-28T08:49:31.861Z,15.27
2018-04-28T08:52:01.167Z,16.90
2018-04-28T08:54:29.541Z,22.60
2018-04-28T08:56:57.953Z,15.00
2018-04-28T08:59:38.630Z,16.20
2018-04-28T09:02:07.044Z,18.03
2018-04-28T09:04:35.419Z,15.20
2018-04-28T09:07:15.635Z,18.77
2018-04-28T09:09:44.040Z,19.73
2018-04-28T09:12:12.433Z,19.53
2018-04-28T09:14:40.825Z,13.70
2018-04-28T09:17:09.703Z,43.03
2018-04-28T09:19:38.205Z,39.27
2018-04-28T09:22:06.582Z,14.97
2018-04-28T09:24:35.143Z,16.23
2018-04-28T09:27:03.511Z,16.73
2018-04-28T09:29:31.903Z,43.53
2018-04-28T09:32:00.289Z,25.93
2018-04-28T09:34:28.672Z,30.20
2018-04-28T09:36:57.067Z,14.73
2018-04-28T09:39:25.439Z,16.80
2018-04-28T09:41:53.816Z,14.50
2018-04-28T09:44:22.469Z,13.63
2018-04-28T09:46:50.847Z,17.13
2018-04-28T09:49:19.218Z,16.57
2018-04-28T09:51:48.507Z,15.60
2018-04-28T09:54:17.220Z,17.33
2018-04-28T09:56:45.587Z,20.63
2018-04-28T09:59:14.234Z,16.43
2018-04-28T10:01:45.587Z,17.63
2018-04-28T10:04:19.515Z,19.97
2018-04-28T10:06:47.910Z,15.40
2018-04-28T10:09:16.304Z,15.90
2018-04-28T10:11:44.695Z,18.60
2018-04-28T10:14:13.538Z,14.63
2018-04-28T10:16:41.934Z,14.43
2018-04-28T10:19:10.629Z,11.17
2018-04-28T10:21:38.994Z,24.63
2018-04-28T10:24:07.525Z,28.23
2018-04-28T10:26:35.905Z,59.37
2018-04-28T10:29:04.612Z,22.20
2018-04-28T10:31:33.231Z,11.73
2018-04-28T10:34:02.694Z,12.53
2018-04-28T10:36:31.359Z,12.17
2018-04-28T10:38:59.734Z,13.90
2018-04-28T10:41:28.111Z,16.17
2018-04-28T10:43:56.870Z,14.50
2018-04-28T10:46:28.640Z,12.30
2018-04-28T10:48:58.140Z,12.63
2018-04-28T10:51:26.500Z,12.40
2018-04-28T10:53:54.995Z,11.23
2018-04-28T10:56:23.686Z,10.57
2018-04-28T10:58:52.243Z,16.00
2018-04-28T11:01:21.264Z,11.00
2018-04-28T11:03:49.812Z,8.63
2018-04-28T11:06:19.754Z,16.63
2018-04-28T11:11:24.778Z,33.03
2018-04-28T11:13:53.787Z,12.57
2018-04-28T11:16:22.581Z,8.43
2018-04-28T11:18:51.194Z,12.73
2018-04-28T11:21:19.957Z,11.80
2018-04-28T11:23:48.335Z,6.97
2018-04-28T11:26:16.715Z,6.93
2018-04-28T11:28:45.096Z,25.57
2018-04-28T11:31:14.241Z,22.50
2018-04-28T11:33:42.962Z,11.20
2018-04-28T11:36:11.353Z,9.00
2018-04-28T11:38:39.712Z,10.50
2018-04-28T11:41:08.385Z,6.77
2018-04-28T11:43:37.568Z,9.47
2018-04-28T11:46:05.869Z,9.43
2018-04-28T11:48:34.526Z,9.77
2018-04-28T11:51:03.259Z,10.17
2018-04-28T11:53:31.892Z,6.97
2018-04-28T11:56:00.260Z,8.47
2018-04-28T11:58:28.714Z,9.60
2018-04-28T12:00:57.938Z,15.13
2018-04-28T12:03:26.321Z,9.80
2018-04-28T12:05:55.104Z,8.10
2018-04-28T12:08:23.465Z,11.27
2018-04-28T12:10:51.810Z,6.17
2018-04-28T12:13:20.177Z,6.93
2018-04-28T12:15:48.572Z,38.47
2018-04-28T12:18:16.940Z,9.90
2018-04-28T12:20:45.522Z,9.40
2018-04-28T12:23:13.871Z,8.03
2018-04-28T12:25:43.172Z,6.27
2018-04-28T12:28:11.554Z,7.47
2018-04-28T12:30:39.925Z,11.53
2018-04-28T12:33:08.291Z,6.80
2018-04-28T12:35:37.060Z,14.73
2018-04-28T12:38:05.449Z,14.47
2018-04-28T12:40:33.831Z,10.27
2018-04-28T12:43:02.194Z,11.00
2018-04-28T12:45:31.884Z,10.40
2018-04-28T12:48:00.304Z,10.43
2018-04-28T12:50:28.727Z,8.60
2018-04-28T12:52:57.035Z,6.57
2018-04-28T12:55:25.383Z,6.60
2018-04-28T12:57:53.731Z,10.27
2018-04-28T13:00:22.375Z,5.03
2018-04-28T13:02:50.727Z,8.33
2018-04-28T13:05:19.080Z,10.20
2018-04-28T13:07:47.568Z,9.53
2018-04-28T13:10:15.941Z,7.80
2018-04-28T13:12:44.304Z,8.63
2018-04-28T13:15:12.669Z,20.67
2018-04-28T13:17:41.052Z,8.53
2018-04-28T19:41:27.403Z,72.60
2018-04-28T19:43:55.914Z,49.27
2018-04-28T19:46:24.320Z,31.47
2018-04-28T19:48:53.099Z,26.87
2018-04-28T19:51:21.510Z,29.30
2018-04-28T19:53:50.345Z,31.37
2018-04-28T19:56:18.764Z,76.03
2018-04-28T19:58:47.141Z,88.00
2018-04-28T20:01:16.313Z,253.40
2018-04-28T20:03:44.832Z,51.90
2018-04-28T20:06:13.821Z,43.80
2018-04-28T20:08:42.271Z,48.23
2018-04-28T20:11:10.637Z,48.73
2018-04-28T20:13:39.750Z,89.80
2018-04-28T20:16:08.956Z,107.77
2018-04-28T20:18:37.751Z,45.53
2018-04-28T20:21:06.363Z,38.63
2018-04-28T20:23:46.584Z,29.00
2018-04-28T20:26:15.040Z,34.07
2018-04-28T20:28:43.419Z,35.30
2018-04-28T20:31:12.339Z,33.60
2018-04-28T20:33:41.891Z,28.10
2018-04-28T20:36:10.342Z,30.50
2018-04-28T20:38:39.786Z,39.00
2018-04-28T20:41:08.179Z,33.40
2018-04-28T20:43:37.430Z,31.13
2018-04-28T20:46:06.201Z,38.33
2018-04-28T20:48:35.004Z,35.97
2018-04-28T20:51:03.401Z,29.87
2018-04-28T20:53:35.952Z,26.07
2018-04-28T20:56:05.448Z,29.23
2018-04-28T20:58:34.646Z,24.17
2018-04-28T21:01:03.204Z,32.83
2018-04-28T21:03:32.547Z,31.43
2018-04-28T21:06:03.632Z,29.40
2018-04-28T21:08:32.110Z,31.23
2018-04-28T21:11:01.171Z,32.87
2018-04-28T21:13:29.605Z,29.20
2018-04-28T21:15:57.985Z,30.17
2018-04-28T21:18:27.219Z,34.87
2018-04-28T21:20:56.367Z,38.57
2018-04-28T21:23:24.808Z,42.70
2018-04-28T21:25:53.395Z,61.63
2018-04-28T21:28:23.705Z,54.47
2018-04-28T21:30:52.147Z,49.53
2018-04-28T21:33:20.891Z,37.73
2018-04-28T21:35:49.263Z,39.27
2018-04-28T21:38:18.747Z,39.10
2018-04-28T21:40:48.518Z,36.23
2018-04-28T21:43:17.562Z,36.57
2018-04-28T21:45:46.888Z,35.87
2018-04-28T21:48:16.077Z,48.73
2018-04-28T21:50:45.130Z,45.77
2018-04-28T21:53:13.505Z,41.27
2018-04-28T21:55:42.521Z,71.73
2018-04-28T21:58:11.359Z,70.80
2018-04-28T22:00:39.796Z,72.60
2018-04-28T22:03:09.324Z,58.00
2018-04-28T22:05:38.822Z,52.27
2018-04-28T22:08:07.645Z,46.83
2018-04-28T22:10:37.603Z,49.43
2018-04-28T22:13:06.892Z,44.43
2018-04-28T22:15:35.365Z,40.97
2018-04-28T22:18:04.719Z,37.67
2018-04-28T22:20:33.714Z,34.07
2018-04-28T22:23:02.707Z,34.23
2018-04-28T22:25:31.171Z,38.67
2018-04-28T22:27:59.545Z,35.47
2018-04-28T22:30:28.422Z,33.83
2018-04-28T22:32:57.141Z,42.13
2018-04-28T22:35:25.633Z,40.27
2018-04-28T22:37:54.353Z,46.27
2018-04-28T22:40:22.739Z,38.67
2018-04-28T22:42:51.109Z,40.03
2018-04-28T22:45:20.589Z,46.50
2018-04-28T22:47:49.749Z,43.73
2018-04-28T22:50:18.122Z,45.53
2018-04-28T22:52:46.611Z,39.53
2018-04-28T22:55:15.371Z,42.67
2018-04-28T22:57:43.930Z,42.87
2018-04-28T23:00:13.895Z,42.47
2018-04-28T23:02:45.005Z,37.83
2018-04-28T23:05:13.742Z,51.00
2018-04-28T23:07:42.541Z,45.93
2018-04-28T23:10:11.575Z,45.43
2018-04-28T23:12:40.387Z,47.20
2018-04-28T23:15:09.534Z,46.07
2018-04-28T23:17:38.438Z,45.37
2018-04-28T23:20:06.913Z,54.33
2018-04-28T23:22:36.087Z,47.60
2018-04-28T23:25:05.192Z,30.83
2018-04-28T23:27:33.887Z,31.60
2018-04-28T23:30:02.738Z,29.67
2018-04-28T23:32:31.674Z,28.80
2018-04-28T23:35:01.031Z,27.23
2018-04-28T23:37:29.399Z,28.83
2018-04-28T23:39:57.985Z,26.47
2018-04-28T23:42:26.516Z,24.37
2018-04-28T23:44:56.405Z,22.73
2018-04-28T23:47:24.918Z,28.00
2018-04-28T23:49:54.314Z,26.10
2018-04-28T23:52:23.224Z,22.37
2018-04-28T23:54:51.897Z,24.70
2018-04-28T23:57:20.268Z,26.97
2018-04-28T23:59:48.930Z,27.83
